Time;durP1;ratioP1;P1;durP2;ratioP2;P2;SDS_P1;SDS_P2;PMS_P1;PMS_P2;Temp;Humidity;BMP_temperature;BMP_pressure;BME280_temperature;BME280_humidity;BME280_pressure;Samples;Min_cycle;Max_cycle;Signal;HPM_P1;HPM_P2
2021/06/25 00:00:07;;;;;;;18.58;16.40;;;;;;;;;;5080188;28;20380;-57
2021/06/25 00:02:32;;;;;;;19.60;17.70;;;;;;;;;;5088722;28;20063;-54
2021/06/25 00:04:57;;;;;;;20.55;18.48;;;;;;;;;;5093739;28;20523;-52
2021/06/25 00:07:22;;;;;;;19.10;17.20;;;;;;;;;;5091703;28;20448;-54
2021/06/25 00:09:48;;;;;;;21.25;18.92;;;;;;;;;;5092338;28;20425;-52
2021/06/25 00:12:13;;;;;;;19.13;17.42;;;;;;;;;;5076621;28;20100;-52
2021/06/25 00:14:38;;;;;;;18.08;16.27;;;;;;;;;;5073536;28;20108;-54
2021/06/25 00:17:04;;;;;;;19.77;17.73;;;;;;;;;;5086898;28;20073;-53
2021/06/25 00:19:29;;;;;;;17.52;15.73;;;;;;;;;;5091897;28;20430;-55
2021/06/25 00:21:55;;;;;;;17.73;15.85;;;;;;;;;;5089269;28;20039;-55
2021/06/25 00:24:20;;;;;;;18.85;16.77;;;;;;;;;;5093385;28;20038;-54
2021/06/25 00:26:45;;;;;;;19.65;17.55;;;;;;;;;;5089612;28;20055;-57
2021/06/25 00:29:10;;;;;;;19.75;17.85;;;;;;;;;;5088952;28;20027;-51
2021/06/25 00:31:36;;;;;;;20.70;18.65;;;;;;;;;;5082881;28;20029;-55
2021/06/25 00:34:02;;;;;;;20.83;18.67;;;;;;;;;;5073051;28;20026;-54
2021/06/25 00:36:27;;;;;;;21.83;18.23;;;;;;;;;;5080412;28;20043;-52
2021/06/25 00:38:52;;;;;;;20.77;18.65;;;;;;;;;;5083108;28;20029;-55
2021/06/25 00:41:17;;;;;;;22.83;20.40;;;;;;;;;;5074303;28;20061;-52
2021/06/25 00:43:43;;;;;;;20.80;18.83;;;;;;;;;;5092226;28;20024;-53
2021/06/25 00:46:08;;;;;;;21.23;19.13;;;;;;;;;;5079790;28;20020;-54
2021/06/25 00:48:33;;;;;;;22.48;20.10;;;;;;;;;;5091348;28;20084;-51
2021/06/25 00:50:58;;;;;;;22.05;19.73;;;;;;;;;;5070832;28;20108;-53
2021/06/25 00:53:30;;;;;;;22.40;19.98;;;;;;;;;;5093054;28;20028;-53
2021/06/25 00:55:56;;;;;;;24.58;21.88;;;;;;;;;;5078201;28;20410;-55
2021/06/25 00:58:21;;;;;;;22.63;20.27;;;;;;;;;;5088107;28;20046;-54
2021/06/25 01:00:47;;;;;;;22.90;20.50;;;;;;;;;;5088034;28;20020;-54
2021/06/25 01:03:13;;;;;;;25.23;22.20;;;;;;;;;;5074968;28;20146;-52
2021/06/25 01:05:39;;;;;;;23.98;21.33;;;;;;;;;;5078170;28;20012;-56
2021/06/25 01:08:05;;;;;;;23.42;21.13;;;;;;;;;;5072572;28;20021;-55
2021/06/25 01:10:30;;;;;;;21.77;19.48;;;;;;;;;;5082979;28;20341;-54
2021/06/25 01:12:56;;;;;;;21.83;19.55;;;;;;;;;;5091640;28;20108;-53
2021/06/25 01:15:21;;;;;;;22.80;20.40;;;;;;;;;;5080111;28;20055;-52
2021/06/25 01:17:46;;;;;;;20.63;18.63;;;;;;;;;;5074218;28;20395;-54
2021/06/25 01:20:16;;;;;;;20.63;18.70;;;;;;;;;;5072028;28;20078;-53
2021/06/25 01:22:42;;;;;;;19.80;17.33;;;;;;;;;;5070926;28;20490;-54
2021/06/25 01:25:09;;;;;;;18.42;16.45;;;;;;;;;;5088076;28;20055;-55
2021/06/25 01:27:35;;;;;;;21.30;18.45;;;;;;;;;;5085106;28;20046;-53
2021/06/25 01:30:01;;;;;;;21.27;19.13;;;;;;;;;;5086222;28;20036;-54
2021/06/25 01:32:26;;;;;;;18.23;16.42;;;;;;;;;;5080809;28;20024;-54
2021/06/25 01:34:52;;;;;;;18.10;16.23;;;;;;;;;;5075285;28;20029;-56
2021/06/25 01:37:18;;;;;;;18.25;16.45;;;;;;;;;;5072043;28;20486;-55
2021/06/25 01:39:44;;;;;;;18.05;16.17;;;;;;;;;;5081631;28;20024;-50
2021/06/25 01:42:10;;;;;;;18.05;16.45;;;;;;;;;;5086370;28;20012;-54
2021/06/25 01:44:35;;;;;;;19.25;17.42;;;;;;;;;;5081590;28;20029;-54
2021/06/25 01:47:01;;;;;;;18.08;16.15;;;;;;;;;;5073079;28;20104;-55
2021/06/25 01:49:27;;;;;;;19.63;17.67;;;;;;;;;;5072205;28;20462;-53
2021/06/25 01:51:52;;;;;;;22.90;20.60;;;;;;;;;;5069528;28;20025;-54
2021/06/25 01:54:17;;;;;;;21.48;19.23;;;;;;;;;;5082458;28;20067;-55
2021/06/25 01:56:43;;;;;;;20.70;18.63;;;;;;;;;;5092593;28;20020;-52
2021/06/25 01:59:09;;;;;;;21.60;18.27;;;;;;;;;;5085669;28;20012;-55
2021/06/25 02:01:34;;;;;;;21.58;19.27;;;;;;;;;;5077269;28;20441;-56
2021/06/25 02:03:59;;;;;;;21.63;19.55;;;;;;;;;;5089800;28;20024;-56
2021/06/25 02:06:25;;;;;;;23.83;19.98;;;;;;;;;;5091506;28;20031;-54
2021/06/25 02:08:50;;;;;;;21.52;19.52;;;;;;;;;;5090787;28;20024;-53
2021/06/25 02:11:17;;;;;;;22.80;20.60;;;;;;;;;;5079598;28;20031;-54
2021/06/25 02:13:42;;;;;;;21.50;19.20;;;;;;;;;;5080651;28;20531;-52
2021/06/25 02:16:07;;;;;;;21.13;19.00;;;;;;;;;;5091818;28;20099;-56
2021/06/25 02:18:33;;;;;;;21.25;19.08;;;;;;;;;;5091877;28;20083;-56
2021/06/25 02:20:58;;;;;;;21.90;19.70;;;;;;;;;;5088718;28;20016;-55
2021/06/25 02:23:23;;;;;;;21.20;18.98;;;;;;;;;;5087448;28;20020;-53
2021/06/25 02:25:48;;;;;;;22.80;20.38;;;;;;;;;;5090441;28;20050;-54
2021/06/25 02:28:13;;;;;;;21.27;19.08;;;;;;;;;;5091886;28;20055;-56
2021/06/25 02:30:39;;;;;;;25.60;22.63;;;;;;;;;;5090794;28;20044;-50
2021/06/25 02:33:04;;;;;;;24.67;20.90;;;;;;;;;;5083586;28;20134;-55
2021/06/25 02:35:29;;;;;;;24.27;21.40;;;;;;;;;;5075027;28;20078;-52
2021/06/25 02:37:55;;;;;;;23.83;21.27;;;;;;;;;;5077038;28;20446;-54
2021/06/25 02:40:21;;;;;;;24.20;20.55;;;;;;;;;;5092477;28;20076;-54
2021/06/25 02:42:46;;;;;;;25.15;21.38;;;;;;;;;;5086311;28;20021;-56
2021/06/25 02:45:11;;;;;;;24.42;21.17;;;;;;;;;;5094756;28;20068;-52
2021/06/25 02:47:38;;;;;;;21.92;19.67;;;;;;;;;;5094804;28;20028;-54
2021/06/25 02:50:04;;;;;;;24.42;20.38;;;;;;;;;;5094703;28;20020;-53
2021/06/25 02:52:29;;;;;;;24.23;19.42;;;;;;;;;;5088809;28;20024;-54
2021/06/25 02:54:54;;;;;;;20.77;18.58;;;;;;;;;;5087506;28;20023;-55
2021/06/25 02:57:20;;;;;;;22.90;19.80;;;;;;;;;;5080888;28;20085;-54
2021/06/25 02:59:45;;;;;;;25.00;19.88;;;;;;;;;;5074830;28;20380;-53
2021/06/25 03:02:10;;;;;;;22.40;20.05;;;;;;;;;;5085707;28;20048;-53
2021/06/25 03:04:35;;;;;;;24.90;20.08;;;;;;;;;;5094302;28;20020;-54
2021/06/25 03:07:01;;;;;;;23.92;19.33;;;;;;;;;;5087332;28;20019;-55
2021/06/25 03:09:26;;;;;;;22.13;19.48;;;;;;;;;;5084863;28;20024;-52
2021/06/25 03:11:51;;;;;;;24.67;21.23;;;;;;;;;;5090169;28;20073;-52
2021/06/25 03:14:16;;;;;;;23.80;20.95;;;;;;;;;;5085563;28;20016;-53
2021/06/25 03:16:42;;;;;;;29.52;23.80;;;;;;;;;;5083861;28;20090;-52
2021/06/25 03:19:07;;;;;;;25.73;22.90;;;;;;;;;;5093413;28;20077;-55
2021/06/25 03:21:32;;;;;;;27.63;23.88;;;;;;;;;;5091177;28;20024;-55
2021/06/25 03:23:57;;;;;;;29.58;23.60;;;;;;;;;;5085554;28;20024;-54
2021/06/25 03:26:23;;;;;;;26.20;23.50;;;;;;;;;;5085540;28;20012;-54
2021/06/25 03:28:48;;;;;;;30.60;23.50;;;;;;;;;;5084940;28;20027;-55
2021/06/25 03:31:13;;;;;;;24.17;21.05;;;;;;;;;;5090986;28;20098;-54
2021/06/25 03:33:38;;;;;;;23.10;20.70;;;;;;;;;;5093444;28;20032;-54
2021/06/25 03:36:04;;;;;;;25.98;22.70;;;;;;;;;;5092574;28;20015;-54
2021/06/25 03:38:30;;;;;;;29.38;22.08;;;;;;;;;;5093984;28;20024;-54
2021/06/25 03:40:56;;;;;;;23.58;21.02;;;;;;;;;;5089917;28;20018;-55
2021/06/25 03:43:21;;;;;;;25.33;20.98;;;;;;;;;;5093081;28;20020;-56
2021/06/25 03:45:46;;;;;;;24.65;22.05;;;;;;;;;;5089800;28;20099;-53
2021/06/25 03:48:12;;;;;;;27.33;23.00;;;;;;;;;;5077474;28;20019;-53
2021/06/25 03:50:37;;;;;;;28.08;23.75;;;;;;;;;;5088249;28;20249;-55
2021/06/25 03:53:03;;;;;;;28.17;23.90;;;;;;;;;;5091331;28;20055;-54
2021/06/25 03:55:28;;;;;;;32.65;25.27;;;;;;;;;;5087816;28;20105;-54
2021/06/25 03:57:53;;;;;;;29.30;24.40;;;;;;;;;;5093953;28;20020;-55
2021/06/25 04:00:19;;;;;;;29.60;24.30;;;;;;;;;;5092462;28;20020;-56
2021/06/25 04:02:44;;;;;;;30.10;24.67;;;;;;;;;;5073031;28;20048;-55
2021/06/25 04:05:10;;;;;;;27.55;24.08;;;;;;;;;;5092693;28;20094;-55
2021/06/25 04:07:36;;;;;;;30.00;24.13;;;;;;;;;;5074054;28;20027;-54
2021/06/25 04:10:02;;;;;;;32.67;25.67;;;;;;;;;;5071988;28;20035;-56
2021/06/25 04:12:28;;;;;;;36.05;28.02;;;;;;;;;;5089085;28;20065;-56
2021/06/25 04:14:53;;;;;;;33.83;27.58;;;;;;;;;;5093149;28;20020;-53
2021/06/25 04:17:19;;;;;;;31.88;28.10;;;;;;;;;;5091674;28;20017;-54
2021/06/25 04:19:44;;;;;;;34.15;26.63;;;;;;;;;;5083950;28;20353;-53
2021/06/25 04:22:09;;;;;;;30.92;26.67;;;;;;;;;;5078888;28;20016;-55
2021/06/25 04:24:35;;;;;;;33.40;27.00;;;;;;;;;;5091612;28;20016;-56
2021/06/25 04:27:00;;;;;;;32.72;25.27;;;;;;;;;;5092540;28;20016;-55
2021/06/25 04:29:25;;;;;;;31.17;25.08;;;;;;;;;;5093171;28;20036;-56
2021/06/25 04:31:53;;;;;;;30.80;26.08;;;;;;;;;;5089945;28;20414;-52
2021/06/25 04:34:19;;;;;;;34.00;27.00;;;;;;;;;;5092508;28;20070;-54
2021/06/25 04:36:44;;;;;;;33.78;26.50;;;;;;;;;;5092872;28;20028;-55
2021/06/25 04:39:09;;;;;;;29.52;25.17;;;;;;;;;;5090656;28;20024;-56
2021/06/25 04:41:35;;;;;;;31.73;26.52;;;;;;;;;;5089623;28;20408;-56
2021/06/25 04:44:01;;;;;;;31.10;26.95;;;;;;;;;;5083280;28;20479;-53
2021/06/25 04:46:26;;;;;;;32.85;27.77;;;;;;;;;;5082377;28;20042;-54
2021/06/25 04:48:51;;;;;;;31.73;27.35;;;;;;;;;;5072936;28;20048;-53
2021/06/25 04:51:16;;;;;;;32.95;26.58;;;;;;;;;;5069244;28;20020;-55
2021/06/25 04:53:41;;;;;;;34.20;28.00;;;;;;;;;;5078311;28;20039;-54
2021/06/25 04:56:07;;;;;;;34.00;28.05;;;;;;;;;;5088194;28;20020;-54
2021/06/25 04:58:32;;;;;;;34.45;28.80;;;;;;;;;;5077877;28;20033;-56
2021/06/25 05:00:58;;;;;;;33.95;27.20;;;;;;;;;;5071716;28;20017;-51
2021/06/25 05:03:24;;;;;;;32.78;26.58;;;;;;;;;;5079419;28;20069;-54
2021/06/25 05:05:49;;;;;;;35.17;27.20;;;;;;;;;;5086366;28;20096;-55
2021/06/25 05:08:15;;;;;;;31.52;25.83;;;;;;;;;;5086567;28;20020;-56
2021/06/25 05:10:40;;;;;;;28.65;24.77;;;;;;;;;;5073668;28;20031;-56
2021/06/25 05:13:05;;;;;;;30.38;24.85;;;;;;;;;;5085283;28;20028;-54
2021/06/25 05:15:31;;;;;;;31.70;24.85;;;;;;;;;;5092097;28;20020;-52
2021/06/25 05:17:56;;;;;;;26.58;21.83;;;;;;;;;;5090871;28;20425;-55
2021/06/25 05:20:22;;;;;;;26.73;21.00;;;;;;;;;;5088406;28;20099;-54
2021/06/25 05:22:47;;;;;;;27.42;21.70;;;;;;;;;;5078808;28;20021;-53
2021/06/25 05:25:13;;;;;;;29.85;23.13;;;;;;;;;;5072281;28;20035;-52
2021/06/25 05:27:38;;;;;;;25.35;22.45;;;;;;;;;;5072633;28;20124;-56
2021/06/25 05:30:05;;;;;;;24.08;21.52;;;;;;;;;;5073968;28;20032;-55
2021/06/25 05:32:31;;;;;;;26.67;23.40;;;;;;;;;;5082870;28;20498;-54
2021/06/25 05:34:57;;;;;;;25.02;21.35;;;;;;;;;;5091859;28;20069;-52
2021/06/25 05:37:22;;;;;;;28.33;21.60;;;;;;;;;;5076920;28;20012;-55
2021/06/25 05:39:47;;;;;;;25.10;20.77;;;;;;;;;;5088141;28;20020;-53
2021/06/25 05:42:12;;;;;;;24.35;21.75;;;;;;;;;;5082163;28;20044;-54
2021/06/25 05:44:38;;;;;;;22.95;20.50;;;;;;;;;;5089917;28;20111;-55
2021/06/25 05:47:04;;;;;;;22.85;20.35;;;;;;;;;;5085849;28;20055;-49
2021/06/25 05:49:29;;;;;;;26.52;23.38;;;;;;;;;;5085809;28;20021;-56
2021/06/25 05:51:54;;;;;;;25.30;21.67;;;;;;;;;;5084197;28;20077;-56
2021/06/25 05:54:20;;;;;;;23.83;21.10;;;;;;;;;;5085755;28;20477;-56
2021/06/25 05:56:45;;;;;;;25.30;22.38;;;;;;;;;;5071495;28;20274;-56
2021/06/25 05:59:10;;;;;;;23.80;21.27;;;;;;;;;;5085671;28;20060;-53
2021/06/25 06:01:35;;;;;;;25.13;20.98;;;;;;;;;;5079677;28;20040;-53
2021/06/25 06:04:01;;;;;;;25.02;22.30;;;;;;;;;;5091824;28;20024;-54
2021/06/25 06:06:26;;;;;;;27.48;22.25;;;;;;;;;;5094596;28;20016;-55
2021/06/25 06:08:51;;;;;;;25.38;21.88;;;;;;;;;;5095809;28;20027;-54
2021/06/25 06:11:17;;;;;;;24.60;22.05;;;;;;;;;;5081881;28;20112;-52
2021/06/25 06:13:42;;;;;;;27.48;22.52;;;;;;;;;;5089861;28;20395;-51
2021/06/25 06:16:08;;;;;;;25.02;21.83;;;;;;;;;;5075615;28;20024;-55
2021/06/25 06:18:49;;;;;;;27.52;21.42;;;;;;;;;;5075442;28;20017;-54
2021/06/25 06:21:15;;;;;;;24.60;21.92;;;;;;;;;;5086914;28;20039;-51
2021/06/25 06:32:06;;;;;;;24.77;21.52;;;;;;;;;;5073883;28;20078;-54
2021/06/25 06:34:34;;;;;;;23.52;20.33;;;;;;;;;;5085768;28;20024;-53
2021/06/25 06:36:59;;;;;;;23.38;20.90;;;;;;;;;;5087629;28;20085;-50
2021/06/25 06:39:25;;;;;;;23.33;20.30;;;;;;;;;;5087804;28;20024;-55
2021/06/25 06:41:50;;;;;;;23.35;19.58;;;;;;;;;;5080005;28;20471;-55
2021/06/25 06:44:15;;;;;;;22.80;19.80;;;;;;;;;;5074950;28;20099;-51
2021/06/25 06:46:40;;;;;;;25.45;21.95;;;;;;;;;;5083655;28;20020;-54
2021/06/25 06:49:06;;;;;;;23.30;19.98;;;;;;;;;;5085314;28;20039;-55
2021/06/25 06:51:31;;;;;;;22.60;20.25;;;;;;;;;;5073532;28;20783;-53
2021/06/25 06:53:57;;;;;;;21.63;18.88;;;;;;;;;;5075273;28;20012;-51
2021/06/25 06:56:23;;;;;;;22.17;19.48;;;;;;;;;;5087367;28;20032;-54
2021/06/25 06:58:49;;;;;;;20.55;18.38;;;;;;;;;;5074710;28;20024;-55
2021/06/25 07:01:14;;;;;;;20.40;18.27;;;;;;;;;;5076758;28;20399;-55
2021/06/25 07:03:40;;;;;;;20.38;17.17;;;;;;;;;;5090229;28;20016;-56
2021/06/25 07:06:05;;;;;;;19.15;16.75;;;;;;;;;;5089905;28;20020;-53
2021/06/25 07:08:31;;;;;;;19.45;17.15;;;;;;;;;;5081685;28;20050;-53
2021/06/25 07:10:56;;;;;;;19.50;16.70;;;;;;;;;;5084554;28;20024;-55
2021/06/25 07:13:22;;;;;;;20.02;17.65;;;;;;;;;;5081369;28;20059;-52
2021/06/25 07:15:47;;;;;;;23.75;19.98;;;;;;;;;;5082669;28;20028;-54
2021/06/25 07:18:12;;;;;;;21.15;17.63;;;;;;;;;;5091865;28;20028;-55
2021/06/25 07:20:37;;;;;;;20.90;18.13;;;;;;;;;;5090813;28;20324;-54
2021/06/25 07:23:03;;;;;;;17.92;15.93;;;;;;;;;;5082429;28;20044;-51
2021/06/25 07:25:28;;;;;;;18.85;16.85;;;;;;;;;;5089802;28;20449;-54
2021/06/25 07:27:54;;;;;;;17.70;15.77;;;;;;;;;;5093432;28;20510;-55
2021/06/25 07:30:19;;;;;;;20.60;17.10;;;;;;;;;;5092902;28;20023;-56
2021/06/25 07:32:45;;;;;;;18.35;15.82;;;;;;;;;;5085892;28;20017;-55
2021/06/25 07:35:10;;;;;;;17.38;15.50;;;;;;;;;;5083859;28;20514;-55
2021/06/25 07:37:35;;;;;;;17.80;15.68;;;;;;;;;;5085966;28;20368;-52
2021/06/25 07:40:01;;;;;;;16.75;14.98;;;;;;;;;;5075384;28;20037;-55
2021/06/25 07:42:26;;;;;;;17.17;15.38;;;;;;;;;;5079941;28;20158;-54
2021/06/25 07:44:52;;;;;;;16.35;14.65;;;;;;;;;;5093486;28;20016;-52
2021/06/25 07:47:18;;;;;;;16.27;14.57;;;;;;;;;;5089225;28;20012;-56
2021/06/25 07:49:43;;;;;;;15.90;14.23;;;;;;;;;;5089150;28;20198;-52
2021/06/25 07:52:08;;;;;;;16.60;14.93;;;;;;;;;;5077500;28;20105;-55
2021/06/25 07:54:33;;;;;;;15.55;13.95;;;;;;;;;;5088249;28;20028;-53
2021/06/25 07:56:59;;;;;;;15.13;13.43;;;;;;;;;;5093279;28;20024;-54
2021/06/25 07:59:24;;;;;;;15.50;13.80;;;;;;;;;;5091026;28;20275;-52
2021/06/25 08:01:49;;;;;;;16.50;14.25;;;;;;;;;;5081738;28;20444;-56
2021/06/25 08:04:14;;;;;;;17.88;16.00;;;;;;;;;;5084959;28;20020;-55
2021/06/25 08:06:40;;;;;;;14.98;13.57;;;;;;;;;;5084320;28;20485;-53
2021/06/25 08:09:07;;;;;;;13.47;12.07;;;;;;;;;;5090863;28;20490;-54
2021/06/25 08:11:32;;;;;;;15.60;13.32;;;;;;;;;;5089716;28;20430;-53
2021/06/25 08:13:57;;;;;;;14.98;13.00;;;;;;;;;;5092926;28;20479;-51
2021/06/25 08:16:22;;;;;;;14.15;12.70;;;;;;;;;;5092422;28;20455;-52
2021/06/25 08:18:51;;;;;;;13.02;11.73;;;;;;;;;;5092764;28;20467;-54
2021/06/25 08:21:16;;;;;;;14.20;12.18;;;;;;;;;;5089600;28;20047;-55
2021/06/25 08:23:41;;;;;;;13.70;11.95;;;;;;;;;;5089575;28;20036;-52
2021/06/25 08:26:06;;;;;;;15.43;11.55;;;;;;;;;;5093311;28;20021;-55
2021/06/25 08:28:32;;;;;;;12.33;11.07;;;;;;;;;;5092223;28;20466;-53
2021/06/25 08:30:57;;;;;;;12.20;10.70;;;;;;;;;;5089394;28;20281;-55
2021/06/25 08:33:22;;;;;;;13.10;10.73;;;;;;;;;;5086780;28;20020;-56
2021/06/25 08:35:47;;;;;;;11.52;8.95;;;;;;;;;;5074927;28;20274;-54
2021/06/25 08:38:13;;;;;;;11.10;10.00;;;;;;;;;;5081780;28;20020;-55
2021/06/25 08:40:38;;;;;;;11.85;10.55;;;;;;;;;;5089880;28;20247;-53
2021/06/25 08:43:04;;;;;;;10.52;9.57;;;;;;;;;;5091144;28;21578;-53
2021/06/25 08:45:29;;;;;;;10.43;9.35;;;;;;;;;;5072497;28;20016;-55
2021/06/25 08:47:54;;;;;;;11.10;9.97;;;;;;;;;;5087215;28;20047;-55
2021/06/25 08:50:21;;;;;;;11.93;10.35;;;;;;;;;;5090984;28;20319;-55
2021/06/25 08:52:50;;;;;;;9.98;8.40;;;;;;;;;;5090483;28;20016;-52
2021/06/25 08:55:16;;;;;;;10.90;9.73;;;;;;;;;;5075647;28;20074;-56
2021/06/25 08:57:42;;;;;;;9.60;8.70;;;;;;;;;;5090383;28;20027;-54
2021/06/25 09:00:18;;;;;;;10.02;9.00;;;;;;;;;;5090929;28;20020;-54
2021/06/25 09:02:44;;;;;;;11.13;10.02;;;;;;;;;;5082491;28;20468;-53
2021/06/25 09:05:22;;;;;;;10.75;9.75;;;;;;;;;;5091472;28;20077;-56
2021/06/25 09:07:47;;;;;;;10.30;9.25;;;;;;;;;;5089224;28;20024;-55
2021/06/25 09:10:13;;;;;;;12.23;11.02;;;;;;;;;;5091984;28;20490;-55
2021/06/25 09:12:39;;;;;;;11.25;9.82;;;;;;;;;;5090042;28;20034;-53
2021/06/25 09:15:10;;;;;;;9.40;8.50;;;;;;;;;;5078282;28;20024;-54
2021/06/25 09:17:54;;;;;;;10.32;9.15;;;;;;;;;;5079810;28;20020;-54
2021/06/25 09:20:28;;;;;;;10.73;9.73;;;;;;;;;;5070403;28;20454;-54
2021/06/25 09:22:53;;;;;;;13.73;10.05;;;;;;;;;;5076485;28;20036;-56
2021/06/25 09:25:19;;;;;;;9.88;9.07;;;;;;;;;;5079251;28;20471;-56
2021/06/25 09:27:52;;;;;;;9.67;7.83;;;;;;;;;;5081694;28;20020;-55
2021/06/25 09:30:17;;;;;;;8.90;8.10;;;;;;;;;;5086141;28;20281;-52
2021/06/25 09:32:43;;;;;;;9.00;7.93;;;;;;;;;;5089449;28;20008;-56
2021/06/25 09:35:12;;;;;;;7.95;7.15;;;;;;;;;;5090338;28;20515;-55
2021/06/25 09:37:42;;;;;;;10.45;8.30;;;;;;;;;;5072339;28;20544;-54
2021/06/25 09:40:08;;;;;;;7.88;7.28;;;;;;;;;;5073509;28;20052;-53
2021/06/25 09:42:33;;;;;;;8.07;7.32;;;;;;;;;;5093047;28;20065;-54
2021/06/25 09:44:59;;;;;;;11.40;9.10;;;;;;;;;;5090248;28;20032;-54
2021/06/25 09:47:57;;;;;;;8.77;7.80;;;;;;;;;;5092447;28;20092;-56
2021/06/25 09:50:27;;;;;;;9.63;8.73;;;;;;;;;;5055297;28;20037;-55
2021/06/25 09:53:06;;;;;;;9.88;8.98;;;;;;;;;;5095223;28;20379;-53
2021/06/25 09:55:48;;;;;;;8.38;7.57;;;;;;;;;;5089900;28;20392;-54
2021/06/25 09:58:21;;;;;;;7.03;6.43;;;;;;;;;;5075440;28;20095;-53
2021/06/25 10:01:21;;;;;;;7.97;5.75;;;;;;;;;;5088249;28;20046;-56
2021/06/25 10:03:31;;;;;;;7.85;6.72;;;;;;;;;;5095010;28;20145;-56
2021/06/25 10:06:06;;;;;;;8.02;7.07;;;;;;;;;;5092176;28;20028;-54
2021/06/25 10:08:32;;;;;;;8.75;7.75;;;;;;;;;;5082064;28;20036;-56
2021/06/25 10:10:57;;;;;;;6.97;6.38;;;;;;;;;;5078519;28;20153;-53
2021/06/25 10:13:23;;;;;;;9.57;8.20;;;;;;;;;;5095843;28;20231;-55
2021/06/25 10:15:48;;;;;;;10.18;7.85;;;;;;;;;;5095870;28;20726;-55
2021/06/25 10:18:14;;;;;;;7.88;7.18;;;;;;;;;;5091582;28;20039;-53
2021/06/25 10:20:39;;;;;;;8.07;6.70;;;;;;;;;;5088578;28;20020;-54
2021/06/25 10:23:07;;;;;;;7.50;6.78;;;;;;;;;;5095564;28;20111;-54
2021/06/25 10:25:32;;;;;;;7.00;6.35;;;;;;;;;;5095582;28;20043;-54
2021/06/25 10:27:58;;;;;;;6.63;5.85;;;;;;;;;;5094320;28;20059;-53
2021/06/25 10:30:23;;;;;;;5.40;4.90;;;;;;;;;;5080719;28;20020;-55
2021/06/25 10:32:49;;;;;;;9.50;5.05;;;;;;;;;;5073585;28;20492;-54
2021/06/25 10:35:14;;;;;;;6.28;5.68;;;;;;;;;;5091128;28;20024;-54
2021/06/25 10:37:41;;;;;;;6.95;5.70;;;;;;;;;;5078966;28;20070;-53
2021/06/25 10:40:19;;;;;;;6.38;5.63;;;;;;;;;;5080035;28;20024;-53
2021/06/25 10:42:44;;;;;;;4.55;3.58;;;;;;;;;;5073232;28;20069;-53
2021/06/25 10:45:10;;;;;;;4.33;2.70;;;;;;;;;;5075610;28;20433;-54
2021/06/25 10:47:35;;;;;;;3.38;3.08;;;;;;;;;;5074686;28;20727;-54
2021/06/25 10:50:08;;;;;;;3.88;3.50;;;;;;;;;;5089625;28;20038;-55
2021/06/25 10:52:33;;;;;;;3.65;3.38;;;;;;;;;;5082979;28;20107;-54
2021/06/25 10:55:02;;;;;;;4.20;3.43;;;;;;;;;;5084914;28;20412;-53
2021/06/25 10:57:27;;;;;;;5.13;3.80;;;;;;;;;;5074524;28;20119;-54
2021/06/25 10:59:53;;;;;;;7.15;6.47;;;;;;;;;;5082520;28;20027;-55
2021/06/25 11:02:18;;;;;;;7.35;6.50;;;;;;;;;;5078424;28;20450;-54
2021/06/25 11:04:44;;;;;;;7.50;6.90;;;;;;;;;;5089983;28;20019;-55
2021/06/25 11:07:13;;;;;;;6.70;6.10;;;;;;;;;;5086773;28;20026;-56
2021/06/25 11:09:59;;;;;;;7.90;5.95;;;;;;;;;;5086282;28;20060;-54
2021/06/25 11:12:28;;;;;;;8.20;6.82;;;;;;;;;;5076028;28;20028;-56
2021/06/25 11:14:56;;;;;;;9.82;7.88;;;;;;;;;;5094189;28;20028;-55
2021/06/25 11:17:40;;;;;;;8.15;7.45;;;;;;;;;;5080432;28;20108;-55
2021/06/25 11:20:22;;;;;;;7.70;6.32;;;;;;;;;;5080722;28;20107;-55
2021/06/25 11:22:52;;;;;;;8.00;7.15;;;;;;;;;;5086016;28;20027;-57
2021/06/25 11:25:32;;;;;;;8.00;6.43;;;;;;;;;;5092070;28;20113;-55
2021/06/25 11:28:26;;;;;;;7.20;6.53;;;;;;;;;;5078917;28;20044;-54
2021/06/25 11:30:51;;;;;;;7.00;6.30;;;;;;;;;;5072906;28;20020;-58
2021/06/25 11:33:43;;;;;;;6.35;5.53;;;;;;;;;;5085147;28;20431;-55
2021/06/25 11:36:14;;;;;;;6.32;5.38;;;;;;;;;;5051636;28;20032;-56
2021/06/25 11:38:54;;;;;;;8.15;5.22;;;;;;;;;;5083082;28;20032;-56
2021/06/25 11:41:26;;;;;;;6.10;5.57;;;;;;;;;;5076435;28;20020;-57
2021/06/25 11:43:51;;;;;;;5.18;4.60;;;;;;;;;;5087405;28;20027;-57
2021/06/25 11:46:17;;;;;;;5.10;4.63;;;;;;;;;;5093127;28;20016;-55
2021/06/25 11:48:46;;;;;;;4.72;4.30;;;;;;;;;;5090795;28;20408;-55
2021/06/25 11:51:13;;;;;;;4.95;4.25;;;;;;;;;;5080901;28;20487;-54
2021/06/25 11:53:42;;;;;;;4.00;3.58;;;;;;;;;;5092127;28;20348;-52
2021/06/25 11:56:15;;;;;;;5.00;4.15;;;;;;;;;;5074347;28;20020;-54
2021/06/25 11:58:52;;;;;;;6.22;3.55;;;;;;;;;;5083492;28;20028;-56
2021/06/25 12:01:17;;;;;;;4.60;4.20;;;;;;;;;;5089040;28;20057;-56
2021/06/25 12:03:43;;;;;;;4.83;3.43;;;;;;;;;;5092020;28;20012;-52
2021/06/25 12:06:08;;;;;;;5.55;3.50;;;;;;;;;;5085948;28;20337;-54
2021/06/25 12:08:49;;;;;;;4.07;3.40;;;;;;;;;;5085352;28;20154;-54
2021/06/25 12:11:15;;;;;;;4.40;3.50;;;;;;;;;;5087717;28;20467;-55
2021/06/25 12:13:40;;;;;;;3.70;3.40;;;;;;;;;;5081901;28;20028;-54
2021/06/25 12:16:08;;;;;;;4.27;3.93;;;;;;;;;;5082629;28;20348;-54
2021/06/25 12:18:34;;;;;;;4.25;3.50;;;;;;;;;;5092866;28;20428;-54
2021/06/25 12:21:07;;;;;;;4.23;3.77;;;;;;;;;;5084030;28;20092;-55
2021/06/25 12:23:33;;;;;;;4.07;3.70;;;;;;;;;;5077702;28;20270;-55
2021/06/25 12:25:58;;;;;;;4.27;3.10;;;;;;;;;;5082476;28;20020;-55
2021/06/25 12:28:24;;;;;;;3.67;3.30;;;;;;;;;;5078093;28;20275;-54
2021/06/25 12:30:55;;;;;;;3.47;3.17;;;;;;;;;;5079227;28;20231;-55
2021/06/25 12:33:24;;;;;;;3.72;2.92;;;;;;;;;;5093203;28;20047;-56
2021/06/25 12:35:51;;;;;;;4.97;3.78;;;;;;;;;;5088468;28;20107;-52
2021/06/25 12:38:17;;;;;;;6.90;4.57;;;;;;;;;;5080463;28;20164;-54
2021/06/25 12:40:43;;;;;;;4.95;3.80;;;;;;;;;;5076878;28;20023;-55
2021/06/25 12:43:09;;;;;;;4.10;3.45;;;;;;;;;;5083285;28;20094;-55
2021/06/25 12:45:53;;;;;;;6.78;4.22;;;;;;;;;;5088882;28;20016;-57
2021/06/25 12:48:20;;;;;;;4.80;4.38;;;;;;;;;;5072639;28;20028;-57
2021/06/25 12:50:46;;;;;;;4.18;3.65;;;;;;;;;;5068937;28;20231;-57
2021/06/25 12:53:12;;;;;;;3.42;3.10;;;;;;;;;;5080732;28;20471;-55
2021/06/25 12:55:38;;;;;;;3.03;2.80;;;;;;;;;;5072516;28;20048;-53
2021/06/25 12:58:03;;;;;;;3.28;2.97;;;;;;;;;;5072600;28;20063;-56
2021/06/25 13:00:29;;;;;;;3.42;2.72;;;;;;;;;;5070343;28;20024;-54
2021/06/25 13:02:54;;;;;;;4.28;3.08;;;;;;;;;;5090041;28;20044;-58
2021/06/25 13:05:32;;;;;;;3.03;2.72;;;;;;;;;;5091749;28;20483;-55
2021/06/25 13:08:01;;;;;;;4.53;3.00;;;;;;;;;;5092635;28;20058;-55
2021/06/25 13:10:27;;;;;;;5.53;4.20;;;;;;;;;;5089962;28;20069;-56
2021/06/25 13:12:52;;;;;;;4.70;4.22;;;;;;;;;;5087775;28;20028;-56
2021/06/25 13:15:18;;;;;;;4.10;3.80;;;;;;;;;;5071985;28;20020;-56
2021/06/25 13:17:43;;;;;;;4.38;3.28;;;;;;;;;;5075552;28;20486;-53
2021/06/25 13:20:08;;;;;;;3.90;3.60;;;;;;;;;;5092068;28;20008;-55
2021/06/25 13:22:34;;;;;;;4.57;3.70;;;;;;;;;;5088234;28;20044;-55
2021/06/25 13:25:02;;;;;;;4.27;3.87;;;;;;;;;;5072291;28;20025;-55
2021/06/25 13:27:28;;;;;;;4.90;4.00;;;;;;;;;;5090358;28;20253;-56
2021/06/25 13:29:54;;;;;;;4.93;4.00;;;;;;;;;;5080705;28;20077;-56
2021/06/25 13:32:27;;;;;;;6.10;3.63;;;;;;;;;;5079578;28;20027;-53
2021/06/25 13:34:52;;;;;;;4.18;3.70;;;;;;;;;;5072273;28;20086;-55
2021/06/25 13:37:17;;;;;;;6.47;3.83;;;;;;;;;;5090975;28;20140;-56
2021/06/25 13:39:52;;;;;;;3.53;3.22;;;;;;;;;;5075465;28;20024;-55
2021/06/25 13:42:17;;;;;;;4.55;3.53;;;;;;;;;;5071613;28;20493;-56
2021/06/25 13:44:42;;;;;;;5.07;3.95;;;;;;;;;;5090250;28;20028;-55
2021/06/25 13:47:08;;;;;;;4.85;4.20;;;;;;;;;;5072622;28;20407;-56
2021/06/25 13:49:35;;;;;;;5.28;3.78;;;;;;;;;;5082270;28;20467;-53
2021/06/25 13:52:02;;;;;;;5.65;4.80;;;;;;;;;;5087729;28;20121;-55
2021/06/25 13:54:27;;;;;;;6.40;4.53;;;;;;;;;;5080295;28;20490;-56
2021/06/25 13:56:55;;;;;;;4.28;3.65;;;;;;;;;;5091106;28;20028;-55
2021/06/25 13:59:21;;;;;;;4.30;3.90;;;;;;;;;;5076269;28;20511;-57
2021/06/25 14:01:47;;;;;;;5.00;3.80;;;;;;;;;;5080006;28;20064;-57
2021/06/25 14:04:18;;;;;;;5.57;3.92;;;;;;;;;;5076818;28;20016;-54
2021/06/25 14:06:55;;;;;;;4.95;4.55;;;;;;;;;;5083063;28;20017;-54
2021/06/25 14:09:21;;;;;;;5.10;4.60;;;;;;;;;;5077781;28;20047;-56
2021/06/25 14:11:46;;;;;;;6.10;5.15;;;;;;;;;;5082833;28;20020;-55
2021/06/25 14:14:12;;;;;;;4.72;4.43;;;;;;;;;;5080658;28;20069;-56
2021/06/25 14:16:37;;;;;;;5.13;4.63;;;;;;;;;;5092036;28;20028;-56
2021/06/25 14:19:08;;;;;;;5.30;4.82;;;;;;;;;;5091163;28;20375;-54
2021/06/25 14:21:43;;;;;;;5.70;5.13;;;;;;;;;;5087472;28;20414;-56
2021/06/25 14:24:10;;;;;;;5.53;4.50;;;;;;;;;;5091121;28;20028;-55
2021/06/25 14:26:35;;;;;;;10.85;6.00;;;;;;;;;;5089800;28;20024;-53
2021/06/25 14:29:00;;;;;;;7.15;6.00;;;;;;;;;;5094716;28;20109;-56
2021/06/25 14:31:27;;;;;;;6.32;5.75;;;;;;;;;;5090753;28;20482;-54